Rehoboth, Delaware
Current Conditions -  °F | °C
As of 11:54 PM on Sunday 21 Dec 2014 (Local Time) from KGED Reporting Station
Haze Haze  
Wind Chill: 28°   Ceiling: Unl
Heat Index: 28°   Visibility: 6mi
Dew Point: 23°   Wind: 3mph
Humidity: 81%   Direction: 360°N
Pressure: 30.33"   Gusts: NA
Location:  38.7115°N, 75.1086°W
Report Text: KGED 220454Z AUTO 36003KT 6SM HZ CLR M02/M05 A3033 RMK AO2 SLP269 T10221050 400611033
Loading
Personal Weather Stations






























Interactive Weather Map New forecast layout! Learn more

10-Day Weather Forecast

Advertisements
Track Severe Weather on mobile